createdAt,value
2022-12-18T00:01:57.885Z,22.40
2022-12-18T00:04:28.318Z,23.73
2022-12-18T00:06:56.206Z,23.98
2022-12-18T00:09:24.792Z,23.38
2022-12-18T00:11:52.682Z,22.02
2022-12-18T00:14:20.623Z,24.33
2022-12-18T00:16:48.915Z,23.08
2022-12-18T00:19:17.002Z,22.85
2022-12-18T00:21:44.992Z,23.77
2022-12-18T00:24:13.315Z,24.35
2022-12-18T00:26:41.430Z,23.00
2022-12-18T00:29:14.854Z,25.27
2022-12-18T00:31:44.929Z,24.98
2022-12-18T00:34:14.483Z,24.08
2022-12-18T00:36:42.962Z,25.35
2022-12-18T00:39:13.273Z,26.63
2022-12-18T00:41:59.871Z,24.20
2022-12-18T00:44:27.926Z,24.05
2022-12-18T00:46:55.787Z,23.80
2022-12-18T00:49:23.807Z,23.95
2022-12-18T00:51:51.590Z,24.05
2022-12-18T00:54:19.641Z,24.38
2022-12-18T00:56:49.599Z,23.95
2022-12-18T00:59:19.568Z,24.77
2022-12-18T01:01:48.265Z,24.63
2022-12-18T01:04:16.559Z,24.00
2022-12-18T01:06:46.820Z,24.85
2022-12-18T01:09:14.927Z,23.55
2022-12-18T01:11:42.609Z,23.27
2022-12-18T01:14:12.587Z,22.00
2022-12-18T01:16:40.500Z,21.98
2022-12-18T01:19:08.452Z,21.45
2022-12-18T01:21:36.256Z,19.83
2022-12-18T01:24:06.089Z,21.10
2022-12-18T01:26:34.915Z,19.88
2022-12-18T01:29:02.927Z,19.50
2022-12-18T01:31:33.511Z,18.83
2022-12-18T01:34:05.740Z,19.80
2022-12-18T01:36:38.500Z,19.20
2022-12-18T01:39:14.369Z,19.80
2022-12-18T01:42:02.329Z,19.63
2022-12-18T01:45:00.381Z,18.02
2022-12-18T01:47:51.087Z,18.90
2022-12-18T01:50:24.572Z,18.98
2022-12-18T01:53:16.916Z,17.85
2022-12-18T01:55:52.800Z,18.73
2022-12-18T01:58:28.722Z,16.65
2022-12-18T02:00:57.556Z,18.52
2022-12-18T02:03:25.338Z,18.65
2022-12-18T02:06:13.207Z,17.33
2022-12-18T02:08:49.477Z,17.83
2022-12-18T02:11:35.563Z,17.77
2022-12-18T02:14:12.850Z,17.38
2022-12-18T02:17:03.189Z,18.10
2022-12-18T02:19:58.310Z,18.02
2022-12-18T02:22:47.336Z,17.23
2022-12-18T02:25:27.209Z,17.98
2022-12-18T02:27:59.180Z,16.00
2022-12-18T02:30:32.029Z,16.35
2022-12-18T02:33:03.272Z,16.98
2022-12-18T02:35:32.710Z,18.45
2022-12-18T02:38:04.705Z,18.23
2022-12-18T02:40:37.115Z,17.40
2022-12-18T02:43:14.766Z,17.38
2022-12-18T02:45:58.049Z,17.42
2022-12-18T02:48:33.966Z,17.00
2022-12-18T02:51:12.835Z,18.90
2022-12-18T02:54:22.482Z,18.58
2022-12-18T02:56:57.430Z,20.67
2022-12-18T02:59:58.565Z,19.75
2022-12-18T03:02:55.801Z,18.38
2022-12-18T03:05:45.258Z,18.20
2022-12-18T03:08:31.136Z,18.63
2022-12-18T03:11:05.736Z,19.20
2022-12-18T03:13:58.749Z,19.23
2022-12-18T03:16:32.160Z,18.52
2022-12-18T03:19:05.084Z,18.67
2022-12-18T03:21:44.820Z,20.40
2022-12-18T03:24:13.111Z,18.77
2022-12-18T03:26:45.750Z,19.27
2022-12-18T03:29:32.203Z,17.05
2022-12-18T03:32:06.824Z,17.48
2022-12-18T03:34:37.562Z,15.07
2022-12-18T03:37:09.000Z,15.55
2022-12-18T03:39:39.427Z,15.32
2022-12-18T03:42:35.547Z,16.20
2022-12-18T03:45:21.112Z,14.88
2022-12-18T03:47:58.382Z,16.65
2022-12-18T03:50:45.014Z,16.58
2022-12-18T03:53:36.855Z,15.68
2022-12-18T03:56:07.228Z,15.80
2022-12-18T03:58:42.161Z,16.20
2022-12-18T04:01:28.187Z,16.73
2022-12-18T04:03:57.837Z,17.20
2022-12-18T04:06:26.238Z,17.60
2022-12-18T04:08:54.887Z,17.35
2022-12-18T04:11:26.122Z,15.93
2022-12-18T04:13:59.289Z,15.20
2022-12-18T04:16:30.244Z,15.13
2022-12-18T04:19:02.299Z,13.60
2022-12-18T04:21:35.088Z,14.35
2022-12-18T04:24:03.212Z,14.15
2022-12-18T04:26:31.500Z,16.40
2022-12-18T04:29:13.966Z,15.32
2022-12-18T04:31:41.620Z,15.50
2022-12-18T04:34:10.783Z,13.73
2022-12-18T04:36:45.321Z,14.68
2022-12-18T04:39:15.031Z,16.10
2022-12-18T04:41:42.993Z,13.65
2022-12-18T04:44:11.484Z,15.35
2022-12-18T04:46:39.308Z,14.93
2022-12-18T04:49:07.349Z,13.65
2022-12-18T04:51:35.104Z,13.73
2022-12-18T04:54:03.192Z,13.10
2022-12-18T04:56:33.007Z,15.10
2022-12-18T04:59:01.057Z,13.25
2022-12-18T05:01:34.278Z,13.50
2022-12-18T05:04:03.953Z,14.63
2022-12-18T05:06:31.839Z,13.95
2022-12-18T05:08:59.827Z,13.38
2022-12-18T05:11:27.513Z,14.52
2022-12-18T05:13:55.451Z,14.27
2022-12-18T05:16:23.243Z,14.18
2022-12-18T05:18:51.225Z,14.32
2022-12-18T05:21:19.004Z,14.48
2022-12-18T05:23:47.121Z,14.10
2022-12-18T05:26:18.750Z,14.00
2022-12-18T05:28:47.140Z,14.25
2022-12-18T05:31:15.618Z,15.48
2022-12-18T05:33:44.276Z,14.80
2022-12-18T05:36:12.847Z,14.70
2022-12-18T05:38:41.433Z,14.27
2022-12-18T05:41:09.912Z,13.40
2022-12-18T05:43:39.898Z,13.85
2022-12-18T05:46:12.178Z,13.88
2022-12-18T05:48:40.308Z,14.43
2022-12-18T05:51:13.803Z,15.65
2022-12-18T05:53:42.970Z,13.70
2022-12-18T05:56:15.622Z,15.77
2022-12-18T05:58:43.708Z,14.70
2022-12-18T06:01:18.101Z,14.25
2022-12-18T06:03:47.167Z,14.23
2022-12-18T06:06:24.729Z,14.27
2022-12-18T06:08:53.446Z,14.02
2022-12-18T06:11:23.557Z,14.93
2022-12-18T06:13:58.907Z,13.13
2022-12-18T06:16:28.636Z,14.45
2022-12-18T06:19:04.776Z,13.50
2022-12-18T06:21:32.984Z,14.38
2022-12-18T06:24:02.045Z,14.80
2022-12-18T06:26:29.781Z,13.50
2022-12-18T06:28:57.994Z,14.18
2022-12-18T06:31:27.237Z,13.20
2022-12-18T06:33:55.346Z,13.65
2022-12-18T06:36:23.240Z,13.27
2022-12-18T06:38:51.290Z,13.43
2022-12-18T06:41:21.437Z,12.80
2022-12-18T06:43:49.844Z,12.82
2022-12-18T06:46:18.159Z,13.50
2022-12-18T06:48:50.103Z,13.18
2022-12-18T06:51:23.067Z,13.77
2022-12-18T06:53:51.063Z,14.07
2022-12-18T06:56:18.823Z,13.10
2022-12-18T06:58:46.975Z,13.95
2022-12-18T07:01:15.412Z,15.35
2022-12-18T07:03:44.176Z,14.65
2022-12-18T07:06:18.893Z,13.75
2022-12-18T07:08:48.071Z,14.88
2022-12-18T07:11:16.770Z,14.23
2022-12-18T07:13:46.183Z,14.55
2022-12-18T07:16:23.917Z,14.18
2022-12-18T07:18:55.016Z,14.57
2022-12-18T07:21:24.663Z,15.07
2022-12-18T07:23:52.807Z,16.63
2022-12-18T07:26:21.670Z,16.13
2022-12-18T07:28:50.316Z,15.95
2022-12-18T07:31:23.219Z,17.63
2022-12-18T07:33:52.474Z,18.05
2022-12-18T07:36:23.856Z,17.80
2022-12-18T07:38:53.513Z,18.20
2022-12-18T07:41:21.571Z,18.38
2022-12-18T07:43:50.058Z,19.00
2022-12-18T07:46:18.665Z,19.27
2022-12-18T07:48:49.918Z,18.77
2022-12-18T07:51:19.326Z,17.77
2022-12-18T07:53:48.813Z,18.85
2022-12-18T07:56:30.320Z,15.15
2022-12-18T07:59:00.304Z,18.95
2022-12-18T08:01:28.679Z,18.55
2022-12-18T08:03:58.187Z,20.02
2022-12-18T08:06:26.127Z,20.48
2022-12-18T08:08:55.880Z,20.73
2022-12-18T08:11:26.440Z,24.48
2022-12-18T08:13:54.824Z,22.70
2022-12-18T08:16:23.458Z,20.65
2022-12-18T08:18:54.190Z,20.38
2022-12-18T08:21:27.764Z,19.98
2022-12-18T08:23:58.552Z,20.75
2022-12-18T08:26:29.428Z,20.58
2022-12-18T08:28:58.977Z,21.67
2022-12-18T08:31:29.281Z,22.83
2022-12-18T08:33:57.849Z,21.75
2022-12-18T08:36:26.455Z,21.25
2022-12-18T08:38:55.576Z,21.65
2022-12-18T08:41:23.338Z,20.13
2022-12-18T08:44:10.292Z,21.67
2022-12-18T08:46:40.994Z,22.70
2022-12-18T08:49:10.495Z,21.73
2022-12-18T08:51:38.717Z,20.95
2022-12-18T08:54:07.176Z,21.67
2022-12-18T08:56:35.413Z,25.50
2022-12-18T08:59:03.727Z,24.67
2022-12-18T09:01:32.106Z,24.55
2022-12-18T09:04:00.365Z,25.50
2022-12-18T09:06:28.228Z,25.45
2022-12-18T09:08:56.176Z,25.60
2022-12-18T09:11:26.755Z,26.90
2022-12-18T09:13:56.973Z,27.05
2022-12-18T09:16:31.754Z,26.65
2022-12-18T09:19:01.764Z,27.25
2022-12-18T09:21:37.417Z,27.05
2022-12-18T09:24:07.315Z,29.30
2022-12-18T09:26:37.619Z,29.27
2022-12-18T09:29:08.084Z,29.88
2022-12-18T09:31:36.585Z,28.95
2022-12-18T09:34:04.548Z,29.20
2022-12-18T09:36:32.312Z,29.33
2022-12-18T09:39:03.728Z,28.27
2022-12-18T09:41:48.405Z,27.58
2022-12-18T09:44:27.380Z,26.05
2022-12-18T09:47:18.525Z,27.65
2022-12-18T09:49:49.717Z,28.48
2022-12-18T09:52:34.592Z,30.08
2022-12-18T09:55:23.866Z,30.08
2022-12-18T09:58:08.539Z,29.60
2022-12-18T10:00:37.217Z,28.88
2022-12-18T10:03:14.124Z,26.63
2022-12-18T10:06:02.535Z,27.50
2022-12-18T10:08:54.848Z,27.98
2022-12-18T10:11:36.064Z,27.70
2022-12-18T10:14:35.030Z,27.40
2022-12-18T10:17:30.464Z,27.73
2022-12-18T10:20:16.702Z,26.85
2022-12-18T10:23:09.535Z,26.38
2022-12-18T10:25:53.392Z,29.58
2022-12-18T10:28:23.369Z,27.90
2022-12-18T10:30:51.312Z,26.70
2022-12-18T10:33:22.957Z,26.52
2022-12-18T10:35:53.701Z,25.35
2022-12-18T10:38:28.191Z,25.38
2022-12-18T10:41:22.031Z,24.20
2022-12-18T10:44:09.973Z,23.95
2022-12-18T10:46:38.086Z,24.90
2022-12-18T10:49:06.186Z,24.63
2022-12-18T10:51:38.735Z,25.52
2022-12-18T10:54:26.812Z,25.87
2022-12-18T10:57:14.749Z,24.80
2022-12-18T11:00:21.755Z,24.60
2022-12-18T11:02:49.682Z,24.35
2022-12-18T11:05:34.258Z,25.95
2022-12-18T11:10:41.899Z,24.90
2022-12-18T11:13:22.532Z,26.45
2022-12-18T11:15:51.572Z,25.90
2022-12-18T11:18:31.714Z,25.88
2022-12-18T11:21:10.342Z,25.50
2022-12-18T11:23:47.388Z,28.65
2022-12-18T11:26:15.636Z,29.08
2022-12-18T11:29:08.629Z,27.33
2022-12-18T11:31:36.773Z,26.92
2022-12-18T11:34:34.347Z,27.98
2022-12-18T11:37:05.411Z,30.17
2022-12-18T11:39:33.151Z,28.80
2022-12-18T11:42:12.920Z,28.58
2022-12-18T11:44:47.381Z,28.38
2022-12-18T11:47:37.161Z,28.88
2022-12-18T11:50:17.172Z,26.75
2022-12-18T11:52:45.500Z,29.88
2022-12-18T11:55:15.732Z,28.88
2022-12-18T11:58:31.112Z,28.60
2022-12-18T12:01:44.069Z,27.20
2022-12-18T12:04:31.017Z,28.25
2022-12-18T12:07:31.707Z,28.60
2022-12-18T12:10:18.561Z,28.45
2022-12-18T12:13:16.228Z,27.70
2022-12-18T12:15:56.006Z,26.95
2022-12-18T12:18:37.111Z,27.48
2022-12-18T12:21:17.835Z,26.20
2022-12-18T12:24:10.279Z,27.85
2022-12-18T12:26:57.357Z,28.85
2022-12-18T12:29:27.810Z,30.05
2022-12-18T12:32:23.151Z,28.17
2022-12-18T12:35:09.596Z,28.40
2022-12-18T12:38:00.954Z,29.27
2022-12-18T12:43:47.944Z,28.45
2022-12-18T12:46:22.777Z,28.00
2022-12-18T12:48:58.694Z,28.75
2022-12-18T12:51:45.718Z,31.00
2022-12-18T12:54:22.378Z,31.25
2022-12-18T12:56:59.335Z,35.22
2022-12-18T12:59:39.688Z,30.52
2022-12-18T13:02:45.717Z,29.35
2022-12-18T13:05:26.258Z,30.90
2022-12-18T13:08:09.994Z,31.13
2022-12-18T13:10:40.719Z,29.67
2022-12-18T13:13:23.661Z,30.92
2022-12-18T13:18:36.712Z,28.25
2022-12-18T13:21:42.509Z,28.13
2022-12-18T13:24:28.609Z,28.60
2022-12-18T13:26:57.473Z,29.60
2022-12-18T13:29:46.514Z,30.60
2022-12-18T13:32:28.809Z,30.90
2022-12-18T13:35:18.911Z,30.23
2022-12-18T13:37:55.755Z,30.30
2022-12-18T13:40:48.009Z,33.20
2022-12-18T13:43:24.656Z,31.33
2022-12-18T13:46:06.460Z,32.53
2022-12-18T13:48:39.055Z,31.70
2022-12-18T13:51:12.129Z,33.30
2022-12-18T13:53:47.663Z,29.57
2022-12-18T13:56:29.354Z,30.00
2022-12-18T13:59:17.597Z,28.42
2022-12-18T14:01:55.329Z,27.73
2022-12-18T14:04:31.255Z,28.85
2022-12-18T14:07:17.846Z,29.20
2022-12-18T14:10:26.048Z,28.08
2022-12-18T14:13:00.702Z,28.98
2022-12-18T14:15:36.253Z,29.63
2022-12-18T14:18:26.643Z,28.67
2022-12-18T14:20:58.762Z,30.92
2022-12-18T14:23:34.766Z,27.52
2022-12-18T14:26:19.995Z,28.08
2022-12-18T14:28:47.718Z,29.60
2022-12-18T14:31:24.015Z,29.08
2022-12-18T14:33:52.733Z,31.08
2022-12-18T14:36:24.290Z,31.02
2022-12-18T14:39:00.315Z,30.75
2022-12-18T14:41:29.791Z,31.15
2022-12-18T14:44:08.232Z,29.88
2022-12-18T14:46:37.321Z,29.45
2022-12-18T14:49:33.848Z,29.35
2022-12-18T14:52:04.682Z,27.85
2022-12-18T14:54:33.481Z,26.70
2022-12-18T14:57:20.184Z,28.52
2022-12-18T14:59:47.907Z,28.00
2022-12-18T15:02:29.006Z,27.55
2022-12-18T15:05:21.636Z,29.08
2022-12-18T15:07:53.565Z,29.63
2022-12-18T15:10:31.606Z,27.38
2022-12-18T15:13:03.593Z,27.23
2022-12-18T15:15:37.118Z,27.90
2022-12-18T15:18:07.982Z,26.75
2022-12-18T15:20:42.095Z,26.83
2022-12-18T15:23:36.255Z,28.73
2022-12-18T15:26:10.045Z,28.30
2022-12-18T15:28:56.498Z,28.77
2022-12-18T15:31:29.072Z,26.05
2022-12-18T15:33:57.062Z,27.80
2022-12-18T15:36:26.811Z,27.25
2022-12-18T15:39:04.917Z,29.05
2022-12-18T15:41:36.597Z,26.63
2022-12-18T15:44:28.255Z,24.95
2022-12-18T15:46:55.935Z,26.92
2022-12-18T15:49:23.895Z,28.25
2022-12-18T15:51:59.060Z,26.55
2022-12-18T15:54:50.436Z,27.48
2022-12-18T15:57:24.236Z,26.48
2022-12-18T15:59:54.574Z,25.90
2022-12-18T16:02:24.021Z,26.42
2022-12-18T16:04:53.323Z,27.05
2022-12-18T16:07:24.593Z,26.42
2022-12-18T16:09:54.171Z,26.17
2022-12-18T16:12:25.511Z,28.38
2022-12-18T16:14:53.478Z,27.77
2022-12-18T16:17:21.270Z,27.80
2022-12-18T16:19:49.429Z,27.50
2022-12-18T16:22:28.899Z,28.85
2022-12-18T16:24:58.001Z,29.42
2022-12-18T16:27:26.439Z,29.10
2022-12-18T16:29:54.530Z,28.73
2022-12-18T16:32:24.520Z,29.55
2022-12-18T16:34:52.840Z,28.73
2022-12-18T16:37:20.599Z,27.30
2022-12-18T16:39:48.589Z,25.60
2022-12-18T16:42:20.830Z,26.33
2022-12-18T16:44:50.405Z,26.87
2022-12-18T16:47:18.832Z,25.27
2022-12-18T16:49:47.271Z,25.70
2022-12-18T16:52:15.167Z,24.33
2022-12-18T16:54:43.171Z,25.20
2022-12-18T16:57:15.890Z,27.08
2022-12-18T16:59:44.215Z,25.13
2022-12-18T17:02:22.812Z,26.00
2022-12-18T17:04:55.399Z,25.42
2022-12-18T17:07:23.932Z,23.73
2022-12-18T17:09:54.024Z,25.27
2022-12-18T17:12:21.950Z,25.52
2022-12-18T17:14:49.905Z,26.58
2022-12-18T17:17:21.382Z,23.13
2022-12-18T17:19:51.055Z,27.45
2022-12-18T17:22:19.525Z,30.45
2022-12-18T17:24:48.130Z,29.23
2022-12-18T17:27:16.228Z,29.08
2022-12-18T17:29:47.724Z,26.90
2022-12-18T17:32:17.882Z,28.00
2022-12-18T17:34:46.578Z,26.90
2022-12-18T17:37:15.540Z,27.67
2022-12-18T17:39:43.754Z,26.73
2022-12-18T17:42:15.171Z,25.92
2022-12-18T17:44:44.875Z,26.48
2022-12-18T17:47:14.007Z,26.83
2022-12-18T17:49:42.088Z,25.83
2022-12-18T17:52:10.280Z,26.48
2022-12-18T17:54:41.492Z,27.02
2022-12-18T17:57:10.370Z,25.63
2022-12-18T17:59:38.461Z,25.23
2022-12-18T18:02:06.362Z,24.70
2022-12-18T18:04:34.634Z,25.85
2022-12-18T18:07:03.112Z,25.45
2022-12-18T18:09:31.216Z,25.45
2022-12-18T18:12:17.726Z,26.63
2022-12-18T18:14:45.954Z,25.77
2022-12-18T18:17:13.836Z,27.10
2022-12-18T18:19:42.211Z,25.70
2022-12-18T18:22:11.888Z,26.70
2022-12-18T18:24:39.948Z,26.00
2022-12-18T18:27:07.736Z,23.73
2022-12-18T18:29:36.524Z,20.27
2022-12-18T18:32:04.813Z,24.65
2022-12-18T18:34:33.573Z,27.27
2022-12-18T18:37:01.863Z,24.92
2022-12-18T18:39:30.484Z,26.45
2022-12-18T18:41:58.148Z,25.85
2022-12-18T18:44:26.550Z,26.13
2022-12-18T18:46:56.271Z,26.10
2022-12-18T18:49:27.540Z,24.58
2022-12-18T18:51:57.562Z,25.88
2022-12-18T18:54:26.504Z,27.02
2022-12-18T18:59:43.408Z,26.98
2022-12-18T19:02:15.190Z,24.67
2022-12-18T19:04:45.880Z,22.08
2022-12-18T19:07:24.875Z,22.13
2022-12-18T19:10:03.557Z,23.92
2022-12-18T19:12:52.706Z,24.55
2022-12-18T19:15:23.417Z,22.48
2022-12-18T19:17:51.319Z,24.15
2022-12-18T19:20:20.214Z,24.55
2022-12-18T19:22:55.237Z,26.67
2022-12-18T19:25:38.511Z,25.23
2022-12-18T19:28:13.524Z,23.95
2022-12-18T19:30:50.247Z,24.65
2022-12-18T19:33:41.786Z,25.40
2022-12-18T19:36:18.555Z,25.48
2022-12-18T19:38:46.931Z,24.33
2022-12-18T19:41:16.797Z,23.65
2022-12-18T19:43:46.886Z,23.20
2022-12-18T19:46:17.221Z,23.30
2022-12-18T19:48:45.690Z,22.65
2022-12-18T19:51:26.277Z,24.40
2022-12-18T19:53:58.757Z,22.73
2022-12-18T19:56:31.490Z,22.55
2022-12-18T19:58:59.796Z,21.60
2022-12-18T20:01:29.638Z,19.38
2022-12-18T20:03:59.073Z,21.30
2022-12-18T20:06:30.167Z,20.83
2022-12-18T20:09:01.302Z,22.95
2022-12-18T20:11:36.375Z,21.58
2022-12-18T20:14:10.532Z,23.05
2022-12-18T20:16:38.760Z,24.10
2022-12-18T20:19:07.033Z,20.65
2022-12-18T20:21:35.107Z,23.02
2022-12-18T20:24:03.092Z,21.92
2022-12-18T20:26:31.390Z,23.08
2022-12-18T20:28:59.632Z,23.48
2022-12-18T20:31:27.618Z,22.25
2022-12-18T20:34:00.296Z,20.75
2022-12-18T20:36:30.653Z,21.15
2022-12-18T20:39:01.805Z,21.65
2022-12-18T20:41:37.430Z,19.80
2022-12-18T20:44:22.800Z,17.85
2022-12-18T20:46:56.928Z,19.10
2022-12-18T20:49:26.341Z,19.60
2022-12-18T20:51:56.481Z,19.05
2022-12-18T20:54:26.821Z,19.00
2022-12-18T20:56:55.397Z,18.80
2022-12-18T20:59:25.231Z,19.25
2022-12-18T21:01:53.979Z,20.58
2022-12-18T21:04:22.822Z,19.58
2022-12-18T21:07:00.465Z,20.02
2022-12-18T21:09:37.255Z,19.30
2022-12-18T21:12:29.531Z,18.63
2022-12-18T21:15:03.761Z,19.60
2022-12-18T21:17:34.718Z,20.25
2022-12-18T21:20:15.698Z,17.90
2022-12-18T21:22:46.909Z,19.05
2022-12-18T21:25:14.623Z,19.15
2022-12-18T21:27:42.590Z,16.95
2022-12-18T21:30:10.639Z,19.10
2022-12-18T21:32:38.746Z,17.65
2022-12-18T21:35:06.813Z,17.80
2022-12-18T21:37:34.746Z,16.48
2022-12-18T21:40:03.750Z,17.20
2022-12-18T21:42:50.518Z,18.00
2022-12-18T21:45:18.184Z,18.90
2022-12-18T21:47:46.217Z,15.55
2022-12-18T21:50:14.343Z,15.73
2022-12-18T21:52:42.518Z,16.33
2022-12-18T21:55:10.547Z,16.30
2022-12-18T21:57:39.704Z,16.35
2022-12-18T22:00:19.035Z,17.35
2022-12-18T22:02:52.115Z,16.48
2022-12-18T22:05:37.195Z,16.88
2022-12-18T22:08:06.843Z,16.27
2022-12-18T22:10:35.089Z,16.50
2022-12-18T22:13:03.930Z,14.15
2022-12-18T22:15:31.739Z,15.50
2022-12-18T22:18:00.537Z,17.73
2022-12-18T22:20:29.830Z,17.67
2022-12-18T22:22:59.006Z,16.98
2022-12-18T22:25:30.365Z,16.08
2022-12-18T22:28:17.136Z,14.40
2022-12-18T22:30:46.089Z,15.95
2022-12-18T22:33:14.175Z,15.85
2022-12-18T22:35:42.093Z,15.55
2022-12-18T22:38:10.471Z,17.05
2022-12-18T22:40:38.183Z,14.38
2022-12-18T22:43:06.332Z,14.80
2022-12-18T22:45:34.142Z,14.77
2022-12-18T22:48:06.679Z,16.38
2022-12-18T22:50:34.473Z,15.57
2022-12-18T22:53:02.415Z,15.13
2022-12-18T22:55:30.163Z,15.18
2022-12-18T22:57:58.122Z,15.07
2022-12-18T23:00:26.126Z,16.25
2022-12-18T23:02:59.785Z,14.85
2022-12-18T23:05:30.147Z,16.60
2022-12-18T23:07:59.205Z,16.42
2022-12-18T23:10:27.465Z,16.25
2022-12-18T23:12:55.848Z,14.43
2022-12-18T23:15:27.702Z,15.43
2022-12-18T23:17:58.265Z,15.10
2022-12-18T23:20:27.488Z,14.95
2022-12-18T23:22:55.517Z,15.73
2022-12-18T23:25:23.436Z,15.45
2022-12-18T23:27:51.613Z,13.23
2022-12-18T23:30:19.458Z,13.55
2022-12-18T23:32:47.478Z,12.68
2022-12-18T23:35:16.123Z,13.23
2022-12-18T23:38:01.857Z,13.38
2022-12-18T23:40:30.498Z,12.77
2022-12-18T23:43:00.325Z,11.77
2022-12-18T23:45:28.117Z,11.18
2022-12-18T23:47:56.367Z,12.73
2022-12-18T23:50:28.795Z,12.90
2022-12-18T23:53:03.722Z,12.70
2022-12-18T23:55:33.757Z,12.20
2022-12-18T23:58:01.745Z,10.98
